createdAt,value
2022-08-23T00:00:10.453Z,17.50
2022-08-23T00:04:00.962Z,17.50
2022-08-23T00:07:45.574Z,17.60
2022-08-23T00:11:32.792Z,17.50
2022-08-23T00:15:18.384Z,17.60
2022-08-23T00:19:03.035Z,17.60
2022-08-23T00:22:46.084Z,17.60
2022-08-23T00:26:28.586Z,17.50
2022-08-23T00:30:16.263Z,17.50
2022-08-23T00:33:58.832Z,17.60
2022-08-23T00:37:43.991Z,17.50
2022-08-23T00:41:36.250Z,17.50
2022-08-23T00:45:44.127Z,17.40
2022-08-23T00:49:27.329Z,17.40
2022-08-23T00:53:15.927Z,17.50
2022-08-23T00:57:02.274Z,17.50
2022-08-23T01:00:45.044Z,17.50
2022-08-23T01:04:30.844Z,17.40
2022-08-23T01:08:15.306Z,17.40
2022-08-23T01:12:04.500Z,17.40
2022-08-23T01:15:49.774Z,17.40
2022-08-23T01:19:37.380Z,17.40
2022-08-23T01:23:34.434Z,17.40
2022-08-23T01:27:17.487Z,17.40
2022-08-23T01:31:00.600Z,17.40
2022-08-23T01:34:48.460Z,17.40
2022-08-23T01:38:36.597Z,17.50
2022-08-23T01:42:20.146Z,17.50
2022-08-23T01:46:10.399Z,17.50
2022-08-23T01:49:53.355Z,17.40
2022-08-23T01:53:37.182Z,17.40
2022-08-23T01:57:19.631Z,17.30
2022-08-23T02:01:04.495Z,17.20
2022-08-23T02:04:47.330Z,17.10
2022-08-23T02:08:47.707Z,16.90
2022-08-23T02:12:31.627Z,16.70
2022-08-23T02:16:14.871Z,16.50
2022-08-23T02:19:57.988Z,16.40
2022-08-23T02:23:40.836Z,16.30
2022-08-23T02:27:23.679Z,16.30
2022-08-23T02:31:08.056Z,16.30
2022-08-23T02:35:05.754Z,16.50
2022-08-23T02:38:48.793Z,16.50
2022-08-23T02:42:31.685Z,16.60
2022-08-23T02:46:15.768Z,16.60
2022-08-23T02:49:58.273Z,16.60
2022-08-23T02:53:41.253Z,16.60
2022-08-23T02:57:23.807Z,16.60
2022-08-23T03:01:07.279Z,16.70
2022-08-23T03:04:54.673Z,16.80
2022-08-23T03:08:37.212Z,16.80
2022-08-23T03:12:19.935Z,16.90
2022-08-23T03:16:02.787Z,16.90
2022-08-23T03:19:45.752Z,16.90
2022-08-23T03:23:29.766Z,16.90
2022-08-23T03:27:13.283Z,16.80
2022-08-23T03:30:56.310Z,16.80
2022-08-23T03:34:39.225Z,16.80
2022-08-23T03:38:21.862Z,16.80
2022-08-23T03:42:06.726Z,16.70
2022-08-23T03:45:51.221Z,16.80
2022-08-23T03:49:34.348Z,16.80
2022-08-23T03:53:17.176Z,16.90
2022-08-23T03:57:02.674Z,16.90
2022-08-23T04:00:46.520Z,17.00
2022-08-23T04:04:29.472Z,17.00
2022-08-23T04:08:13.903Z,17.00
2022-08-23T04:11:57.516Z,17.00
2022-08-23T04:15:40.681Z,17.00
2022-08-23T04:19:27.991Z,17.00
2022-08-23T04:23:12.321Z,17.00
2022-08-23T04:26:55.464Z,16.90
2022-08-23T04:30:37.798Z,16.90
2022-08-23T04:34:21.867Z,16.90
2022-08-23T04:38:24.631Z,16.90
2022-08-23T04:42:19.081Z,17.00
2022-08-23T04:46:05.681Z,17.10
2022-08-23T04:49:48.644Z,17.10
2022-08-23T04:53:35.157Z,17.10
2022-08-23T04:57:17.823Z,17.20
2022-08-23T05:01:02.400Z,17.20
2022-08-23T05:04:45.324Z,17.30
2022-08-23T05:08:28.931Z,17.30
2022-08-23T05:12:13.197Z,17.40
2022-08-23T05:15:55.874Z,17.40
2022-08-23T05:19:47.155Z,17.40
2022-08-23T05:23:31.793Z,17.50
2022-08-23T05:27:16.487Z,17.60
2022-08-23T05:31:02.133Z,17.70
2022-08-23T05:34:44.933Z,17.90
2022-08-23T05:38:27.833Z,18.10
2022-08-23T05:42:14.487Z,18.20
2022-08-23T05:46:06.931Z,18.30
2022-08-23T05:49:56.898Z,18.40
2022-08-23T05:53:39.551Z,18.40
2022-08-23T05:57:22.094Z,18.50
2022-08-23T06:01:06.642Z,18.50
2022-08-23T06:04:51.593Z,18.60
2022-08-23T06:08:38.436Z,18.60
2022-08-23T06:12:21.003Z,18.80
2022-08-23T06:16:14.283Z,18.80
2022-08-23T06:19:57.977Z,19.00
2022-08-23T06:23:42.104Z,19.10
2022-08-23T06:27:24.920Z,19.30
2022-08-23T06:31:09.295Z,19.40
2022-08-23T06:34:51.843Z,19.50
2022-08-23T06:38:55.563Z,19.60
2022-08-23T06:42:39.019Z,19.60
2022-08-23T06:46:28.255Z,19.70
2022-08-23T06:50:12.574Z,19.50
2022-08-23T06:53:56.731Z,19.60
2022-08-23T06:57:39.371Z,19.60
2022-08-23T07:01:45.140Z,19.60
2022-08-23T07:05:28.698Z,19.70
2022-08-23T07:09:11.369Z,20.00
2022-08-23T07:12:54.567Z,20.40
2022-08-23T07:16:41.850Z,20.60
2022-08-23T07:20:24.602Z,20.80
2022-08-23T07:24:08.409Z,21.00
2022-08-23T07:27:51.205Z,21.20
2022-08-23T07:31:36.760Z,21.40
2022-08-23T07:35:21.498Z,21.50
2022-08-23T07:39:05.689Z,21.70
2022-08-23T07:42:48.320Z,21.90
2022-08-23T07:46:31.932Z,21.90
2022-08-23T07:50:14.924Z,21.90
2022-08-23T07:53:59.809Z,22.00
2022-08-23T07:57:42.402Z,21.90
2022-08-23T08:01:26.181Z,22.10
2022-08-23T08:05:09.418Z,22.20
2022-08-23T08:08:52.940Z,22.50
2022-08-23T08:12:37.426Z,22.70
2022-08-23T08:16:27.294Z,22.80
2022-08-23T08:20:11.362Z,22.80
2022-08-23T08:23:54.600Z,23.00
2022-08-23T08:27:38.492Z,23.20
2022-08-23T08:31:21.146Z,23.20
2022-08-23T08:35:03.870Z,23.30
2022-08-23T08:38:47.898Z,23.50
2022-08-23T08:42:54.735Z,23.80
2022-08-23T08:46:46.143Z,23.70
2022-08-23T08:50:36.708Z,23.80
2022-08-23T08:54:24.017Z,23.80
2022-08-23T08:58:14.385Z,23.90
2022-08-23T09:01:58.916Z,24.20
2022-08-23T09:05:50.527Z,24.50
2022-08-23T09:10:09.210Z,24.50
2022-08-23T09:14:12.851Z,24.30
2022-08-23T09:17:58.600Z,24.40
2022-08-23T09:21:46.631Z,24.60
2022-08-23T09:25:29.285Z,24.70
2022-08-23T09:29:22.813Z,24.90
2022-08-23T09:33:17.754Z,24.90
2022-08-23T09:37:11.493Z,25.20
2022-08-23T09:40:54.091Z,25.20
2022-08-23T09:44:41.342Z,25.40
2022-08-23T09:48:43.791Z,25.40
2022-08-23T09:52:33.088Z,25.60
2022-08-23T09:56:19.576Z,25.60
2022-08-23T10:00:23.143Z,25.70
2022-08-23T10:04:12.634Z,25.70
2022-08-23T10:07:59.873Z,25.50
2022-08-23T10:11:46.310Z,25.50
2022-08-23T10:15:47.657Z,25.40
2022-08-23T10:19:37.339Z,25.20
2022-08-23T10:23:33.976Z,25.50
2022-08-23T10:27:52.452Z,25.50
2022-08-23T10:31:44.684Z,25.80
2022-08-23T10:35:33.103Z,25.70
2022-08-23T10:39:20.875Z,25.80
2022-08-23T10:43:16.130Z,26.00
2022-08-23T10:47:12.608Z,26.20
2022-08-23T10:50:58.344Z,26.60
2022-08-23T10:54:49.548Z,26.30
2022-08-23T10:58:49.658Z,26.20
2022-08-23T11:02:42.840Z,26.50
2022-08-23T11:06:47.432Z,26.40
2022-08-23T11:10:53.758Z,26.80
2022-08-23T11:14:43.381Z,26.80
2022-08-23T11:18:45.738Z,26.50
2022-08-23T11:22:30.412Z,26.50
2022-08-23T11:27:07.367Z,26.80
2022-08-23T11:30:58.364Z,27.10
2022-08-23T11:34:48.406Z,26.70
2022-08-23T11:39:02.067Z,27.30
2022-08-23T11:42:52.367Z,27.40
2022-08-23T11:46:42.148Z,27.50
2022-08-23T11:50:33.438Z,27.70
2022-08-23T11:54:35.629Z,27.70
2022-08-23T11:58:24.233Z,27.10
2022-08-23T12:02:47.692Z,27.40
2022-08-23T12:06:41.470Z,27.50
2022-08-23T12:10:46.362Z,28.00
2022-08-23T12:14:49.640Z,28.40
2022-08-23T12:18:34.440Z,28.60
2022-08-23T12:22:21.471Z,28.80
2022-08-23T12:26:11.017Z,28.90
2022-08-23T12:30:01.544Z,28.60
2022-08-23T12:34:00.129Z,28.20
2022-08-23T12:37:54.795Z,28.00
2022-08-23T12:41:56.374Z,27.70
2022-08-23T12:45:48.914Z,27.80
2022-08-23T12:49:34.314Z,28.00
2022-08-23T12:53:26.237Z,28.40
2022-08-23T12:57:13.400Z,28.50
2022-08-23T13:01:01.071Z,28.70
2022-08-23T13:04:44.200Z,28.90
2022-08-23T13:08:34.831Z,29.10
2022-08-23T13:12:19.067Z,29.00
2022-08-23T13:16:28.528Z,28.20
2022-08-23T13:20:19.919Z,28.20
2022-08-23T13:24:38.012Z,28.00
2022-08-23T13:28:25.399Z,27.90
2022-08-23T13:32:27.017Z,28.00
2022-08-23T13:36:15.693Z,28.10
2022-08-23T13:40:00.311Z,28.20
2022-08-23T13:43:48.991Z,28.20
2022-08-23T13:47:37.160Z,27.70
2022-08-23T13:51:32.695Z,27.80
2022-08-23T13:55:15.352Z,27.60
2022-08-23T13:59:02.246Z,27.80
2022-08-23T14:02:48.919Z,28.10
2022-08-23T14:06:31.451Z,28.70
2022-08-23T14:10:14.612Z,28.80
2022-08-23T14:13:57.320Z,29.10
2022-08-23T14:17:43.125Z,29.00
2022-08-23T14:21:27.634Z,29.00
2022-08-23T14:25:12.409Z,29.20
2022-08-23T14:28:55.341Z,28.70
2022-08-23T14:32:38.657Z,28.40
2022-08-23T14:36:21.597Z,28.00
2022-08-23T14:40:10.727Z,28.20
2022-08-23T14:43:53.993Z,28.10
2022-08-23T14:47:37.335Z,28.10
2022-08-23T14:51:26.461Z,28.20
2022-08-23T14:55:11.215Z,28.00
2022-08-23T14:58:54.064Z,28.00
2022-08-23T15:02:36.980Z,28.20
2022-08-23T15:06:21.156Z,28.00
2022-08-23T15:10:05.233Z,28.10
2022-08-23T15:13:55.475Z,28.10
2022-08-23T15:17:44.582Z,28.30
2022-08-23T15:21:27.584Z,28.40
2022-08-23T15:25:10.418Z,28.00
2022-08-23T15:28:54.596Z,28.00
2022-08-23T15:32:37.577Z,28.30
2022-08-23T15:36:20.825Z,27.90
2022-08-23T15:40:05.719Z,27.90
2022-08-23T15:43:48.480Z,28.00
2022-08-23T15:47:37.901Z,28.00
2022-08-23T15:51:20.807Z,27.70
2022-08-23T15:55:03.840Z,27.50
2022-08-23T15:58:47.296Z,27.30
2022-08-23T16:02:41.156Z,27.50
2022-08-23T16:06:36.597Z,27.40
2022-08-23T16:10:19.428Z,27.60
2022-08-23T16:14:02.113Z,27.50
2022-08-23T16:17:45.113Z,27.60
2022-08-23T16:21:29.863Z,27.50
2022-08-23T16:25:13.752Z,27.40
2022-08-23T16:28:57.839Z,27.20
2022-08-23T16:32:40.518Z,27.10
2022-08-23T16:36:30.136Z,27.20
2022-08-23T16:40:15.101Z,27.40
2022-08-23T16:43:57.623Z,27.40
2022-08-23T16:47:42.816Z,27.40
2022-08-23T16:51:27.580Z,27.60
2022-08-23T16:55:13.084Z,27.30
2022-08-23T16:58:57.554Z,27.60
2022-08-23T17:02:40.829Z,27.70
2022-08-23T17:06:24.107Z,27.60
2022-08-23T17:10:09.178Z,27.60
2022-08-23T17:13:51.673Z,27.40
2022-08-23T17:17:35.785Z,27.30
2022-08-23T17:21:18.351Z,27.40
2022-08-23T17:25:01.329Z,27.50
2022-08-23T17:28:44.049Z,27.50
2022-08-23T17:32:26.536Z,27.40
2022-08-23T17:36:27.385Z,27.30
2022-08-23T17:40:14.295Z,26.90
2022-08-23T17:43:58.200Z,26.60
2022-08-23T17:47:41.239Z,26.40
2022-08-23T17:51:25.283Z,26.20
2022-08-23T17:55:10.618Z,25.90
2022-08-23T17:58:53.714Z,25.60
2022-08-23T18:02:37.543Z,25.30
2022-08-23T18:06:20.692Z,25.10
2022-08-23T18:10:05.949Z,24.80
2022-08-23T18:13:48.569Z,24.60
2022-08-23T18:17:31.673Z,24.50
2022-08-23T18:21:14.492Z,24.20
2022-08-23T18:24:57.197Z,24.00
2022-08-23T18:28:41.425Z,23.80
2022-08-23T18:32:24.062Z,23.60
2022-08-23T18:36:07.168Z,23.40
2022-08-23T18:39:50.237Z,23.20
2022-08-23T18:43:37.503Z,23.00
2022-08-23T18:47:21.680Z,22.80
2022-08-23T18:51:05.898Z,22.70
2022-08-23T18:54:58.984Z,22.50
2022-08-23T18:58:41.618Z,22.40
2022-08-23T19:02:25.491Z,22.30
2022-08-23T19:06:08.246Z,22.10
2022-08-23T19:09:51.071Z,22.00
2022-08-23T19:13:34.218Z,21.90
2022-08-23T19:17:17.008Z,21.80
2022-08-23T19:21:03.635Z,21.70
2022-08-23T19:24:46.490Z,21.60
2022-08-23T19:28:29.328Z,21.60
2022-08-23T19:32:14.689Z,21.50
2022-08-23T19:35:58.129Z,21.40
2022-08-23T19:39:42.335Z,21.30
2022-08-23T19:43:25.535Z,21.20
2022-08-23T19:47:13.424Z,21.10
2022-08-23T19:51:02.684Z,21.10
2022-08-23T19:54:46.782Z,21.00
2022-08-23T19:58:29.344Z,20.90
2022-08-23T20:02:13.881Z,20.90
2022-08-23T20:05:56.353Z,20.80
2022-08-23T20:09:39.118Z,20.70
2022-08-23T20:13:23.372Z,20.60
2022-08-23T20:17:10.486Z,20.60
2022-08-23T20:20:53.949Z,20.50
2022-08-23T20:24:51.013Z,20.40
2022-08-23T20:28:36.823Z,20.40
2022-08-23T20:32:19.897Z,20.30
2022-08-23T20:36:04.089Z,20.30
2022-08-23T20:39:46.895Z,20.20
2022-08-23T20:43:29.773Z,20.20
2022-08-23T20:47:13.748Z,20.10
2022-08-23T20:50:59.111Z,20.10
2022-08-23T20:54:42.015Z,20.00
2022-08-23T20:58:24.693Z,20.00
2022-08-23T21:02:08.290Z,19.90
2022-08-23T21:06:02.108Z,19.90
2022-08-23T21:09:46.153Z,19.90
2022-08-23T21:13:29.126Z,19.90
2022-08-23T21:17:14.423Z,19.90
2022-08-23T21:20:59.331Z,19.90
2022-08-23T21:24:42.161Z,19.80
2022-08-23T21:28:26.371Z,19.70
2022-08-23T21:32:09.447Z,19.70
2022-08-23T21:35:52.055Z,19.60
2022-08-23T21:39:35.688Z,19.60
2022-08-23T21:43:18.334Z,19.50
2022-08-23T21:47:01.675Z,19.50
2022-08-23T21:50:44.944Z,19.50
2022-08-23T21:54:27.705Z,19.50
2022-08-23T21:58:12.376Z,19.50
2022-08-23T22:01:55.236Z,19.40
2022-08-23T22:05:40.664Z,19.30
2022-08-23T22:09:25.782Z,19.30
2022-08-23T22:13:15.531Z,19.20
2022-08-23T22:17:00.388Z,19.30
2022-08-23T22:20:43.569Z,19.40
2022-08-23T22:24:26.507Z,19.40
2022-08-23T22:28:09.134Z,19.50
2022-08-23T22:31:52.957Z,19.50
2022-08-23T22:35:36.405Z,19.50
2022-08-23T22:53:18.492Z,19.30
2022-08-23T22:57:01.534Z,19.20
2022-08-23T23:00:44.820Z,19.20
2022-08-23T23:04:27.579Z,19.20
2022-08-23T23:08:28.814Z,19.30
2022-08-23T23:12:13.427Z,19.40
2022-08-23T23:15:57.144Z,19.50
2022-08-23T23:19:53.940Z,19.50
2022-08-23T23:23:38.211Z,19.50
2022-08-23T23:27:22.408Z,19.50
2022-08-23T23:31:05.327Z,19.40
2022-08-23T23:34:49.068Z,19.40
2022-08-23T23:38:31.849Z,19.30
2022-08-23T23:42:14.371Z,19.30
2022-08-23T23:45:58.520Z,19.20
2022-08-23T23:49:41.286Z,19.10
2022-08-23T23:53:23.917Z,19.10
2022-08-23T23:57:13.217Z,19.10
